Time;durP1;ratioP1;P1;durP2;ratioP2;P2;SDS_P1;SDS_P2;PMS_P1;PMS_P2;Temp;Humidity;BMP_temperature;BMP_pressure;BME280_temperature;BME280_humidity;BME280_pressure;Samples;Min_cycle;Max_cycle;Signal;HPM_P1;HPM_P2
2022/05/15 00:01:21;;;;;;;6.50;2.00;;;;;;;;;;5053655;28;20197;-38
2022/05/15 00:03:49;;;;;;;3.00;1.73;;;;;;;;;;5048505;28;20217;-40
2022/05/15 00:06:16;;;;;;;3.43;1.50;;;;;;;;;;5048096;28;20312;-34
2022/05/15 00:08:43;;;;;;;3.13;1.90;;;;;;;;;;5053318;28;20211;-37
2022/05/15 00:11:12;;;;;;;2.50;1.90;;;;;;;;;;5045492;28;20203;-36
2022/05/15 00:13:42;;;;;;;2.20;1.77;;;;;;;;;;5046592;28;20215;-39
2022/05/15 00:16:09;;;;;;;1.97;1.87;;;;;;;;;;5053652;28;20235;-32
2022/05/15 00:18:38;;;;;;;2.00;1.67;;;;;;;;;;5049633;28;20210;-33
2022/05/15 00:21:05;;;;;;;2.90;1.70;;;;;;;;;;5053031;28;20203;-32
2022/05/15 00:23:32;;;;;;;1.73;1.63;;;;;;;;;;5052605;28;20206;-38
2022/05/15 00:25:59;;;;;;;2.90;1.70;;;;;;;;;;5033624;28;20223;-40
2022/05/15 00:28:27;;;;;;;1.70;1.50;;;;;;;;;;5046397;28;20229;-39
2022/05/15 00:30:54;;;;;;;6.20;1.67;;;;;;;;;;5052985;28;20213;-38
2022/05/15 00:33:21;;;;;;;3.23;1.60;;;;;;;;;;5049633;28;20229;-40
2022/05/15 00:35:50;;;;;;;2.67;2.07;;;;;;;;;;5052336;28;20227;-35
2022/05/15 00:38:17;;;;;;;1.67;1.57;;;;;;;;;;5053232;28;20209;-35
2022/05/15 00:40:45;;;;;;;3.30;1.60;;;;;;;;;;5049583;28;20278;-36
2022/05/15 00:43:13;;;;;;;1.67;1.57;;;;;;;;;;5044918;28;20207;-41
2022/05/15 00:45:40;;;;;;;2.47;1.60;;;;;;;;;;5052591;28;20228;-42
2022/05/15 00:48:07;;;;;;;3.03;1.60;;;;;;;;;;5049474;28;20222;-34
2022/05/15 00:50:36;;;;;;;5.97;1.83;;;;;;;;;;5052420;28;20210;-35
2022/05/15 00:53:06;;;;;;;3.77;1.97;;;;;;;;;;5051675;28;20210;-35
2022/05/15 00:55:35;;;;;;;1.63;1.47;;;;;;;;;;5051806;28;20221;-35
2022/05/15 00:58:04;;;;;;;3.77;1.70;;;;;;;;;;5044083;28;20202;-32
2022/05/15 01:00:33;;;;;;;3.13;1.67;;;;;;;;;;5043011;28;20221;-35
2022/05/15 01:03:02;;;;;;;3.43;1.70;;;;;;;;;;5037387;28;20210;-34
2022/05/15 01:05:29;;;;;;;1.97;1.87;;;;;;;;;;5051118;28;20214;-32
2022/05/15 01:07:56;;;;;;;2.80;1.90;;;;;;;;;;5050676;28;20225;-34
2022/05/15 01:10:25;;;;;;;2.97;1.70;;;;;;;;;;5046070;28;20206;-36
2022/05/15 01:12:52;;;;;;;6.07;1.50;;;;;;;;;;5042860;28;20218;-35
2022/05/15 01:15:20;;;;;;;1.60;1.20;;;;;;;;;;5052076;28;20281;-30
2022/05/15 01:17:47;;;;;;;1.60;1.50;;;;;;;;;;5048549;28;20205;-37
2022/05/15 01:20:16;;;;;;;2.10;1.90;;;;;;;;;;5052467;28;20202;-35
2022/05/15 01:22:45;;;;;;;2.43;1.80;;;;;;;;;;5052891;28;20197;-40
2022/05/15 01:25:15;;;;;;;2.17;1.50;;;;;;;;;;5050680;28;20251;-37
2022/05/15 01:27:44;;;;;;;1.90;1.70;;;;;;;;;;5052763;28;20214;-33
2022/05/15 01:30:11;;;;;;;4.87;2.10;;;;;;;;;;5053204;28;20201;-35
2022/05/15 01:32:38;;;;;;;2.03;1.83;;;;;;;;;;5049912;28;20210;-33
2022/05/15 01:35:24;;;;;;;1.50;1.40;;;;;;;;;;5046537;28;20208;-34
2022/05/15 01:37:53;;;;;;;2.80;1.53;;;;;;;;;;5052355;28;20462;-38
2022/05/15 01:40:20;;;;;;;2.33;1.77;;;;;;;;;;5048266;28;20206;-36
2022/05/15 01:42:47;;;;;;;4.00;1.97;;;;;;;;;;5044704;28;20213;-33
2022/05/15 01:45:14;;;;;;;2.00;1.80;;;;;;;;;;5051652;28;20198;-37
2022/05/15 01:47:42;;;;;;;1.50;1.40;;;;;;;;;;5045274;28;20237;-38
2022/05/15 01:50:09;;;;;;;2.53;1.57;;;;;;;;;;5051947;28;20212;-34
2022/05/15 01:52:37;;;;;;;1.77;1.67;;;;;;;;;;5054826;28;20277;-37
2022/05/15 01:55:06;;;;;;;2.00;1.80;;;;;;;;;;5054453;28;20217;-40
2022/05/15 01:57:33;;;;;;;1.93;1.83;;;;;;;;;;5044268;28;20212;-34
2022/05/15 02:00:00;;;;;;;1.67;1.50;;;;;;;;;;5055548;28;20209;-37
2022/05/15 02:02:27;;;;;;;1.80;1.70;;;;;;;;;;5048613;28;20209;-35
2022/05/15 02:04:54;;;;;;;1.57;1.47;;;;;;;;;;5048840;28;20202;-37
2022/05/15 02:07:22;;;;;;;3.27;1.90;;;;;;;;;;5055947;28;20308;-37
2022/05/15 02:09:49;;;;;;;2.33;2.00;;;;;;;;;;5056291;28;20202;-37
2022/05/15 02:12:17;;;;;;;2.30;1.90;;;;;;;;;;5046985;28;20209;-37
2022/05/15 02:17:12;;;;;;;2.07;1.80;;;;;;;;;;5026087;28;20239;-30
2022/05/15 02:19:40;;;;;;;1.63;1.53;;;;;;;;;;5032137;28;20210;-41
2022/05/15 02:22:07;;;;;;;3.07;1.90;;;;;;;;;;5033424;28;20230;-43
2022/05/15 02:24:34;;;;;;;2.30;1.80;;;;;;;;;;5033239;28;20210;-36
2022/05/15 02:27:01;;;;;;;2.23;2.03;;;;;;;;;;5015689;28;20237;-32
2022/05/15 02:29:29;;;;;;;2.23;2.03;;;;;;;;;;5029165;28;20205;-35
2022/05/15 02:31:57;;;;;;;3.87;2.20;;;;;;;;;;5030007;28;20207;-33
2022/05/15 02:34:24;;;;;;;3.43;2.03;;;;;;;;;;5026498;28;20207;-40
2022/05/15 02:36:51;;;;;;;2.17;1.70;;;;;;;;;;5032169;28;20225;-33
2022/05/15 02:39:18;;;;;;;2.00;1.73;;;;;;;;;;5032441;28;20225;-37
2022/05/15 02:41:45;;;;;;;3.50;1.70;;;;;;;;;;5028184;28;20203;-35
2022/05/15 02:44:12;;;;;;;4.33;1.90;;;;;;;;;;5025903;28;20261;-38
2022/05/15 02:46:41;;;;;;;2.43;2.00;;;;;;;;;;5032608;28;20222;-38
2022/05/15 02:51:53;;;;;;;1.83;1.67;;;;;;;;;;5031908;28;20201;-32
2022/05/15 02:54:21;;;;;;;2.20;1.73;;;;;;;;;;5032852;28;20203;-39
2022/05/15 02:56:48;;;;;;;1.90;1.80;;;;;;;;;;5014382;28;20235;-32
2022/05/15 02:59:15;;;;;;;2.10;1.90;;;;;;;;;;5031282;28;20207;-38
2022/05/15 03:01:44;;;;;;;2.17;1.90;;;;;;;;;;5032132;28;20199;-35
2022/05/15 03:04:11;;;;;;;1.77;1.60;;;;;;;;;;5018195;28;20206;-39
2022/05/15 03:06:38;;;;;;;2.00;1.80;;;;;;;;;;5023391;28;20246;-30
2022/05/15 03:09:05;;;;;;;3.13;1.70;;;;;;;;;;5033398;28;20227;-32
2022/05/15 03:11:32;;;;;;;2.10;1.70;;;;;;;;;;5029465;28;20203;-35
2022/05/15 03:13:59;;;;;;;3.23;1.50;;;;;;;;;;5016569;28;20209;-37
2022/05/15 03:16:28;;;;;;;2.07;1.87;;;;;;;;;;5031547;28;20226;-31
2022/05/15 03:18:56;;;;;;;1.80;1.70;;;;;;;;;;5022993;28;20217;-35
2022/05/15 03:21:29;;;;;;;1.70;1.60;;;;;;;;;;5027056;28;20205;-32
2022/05/15 03:23:57;;;;;;;3.30;2.17;;;;;;;;;;5032964;28;20202;-35
2022/05/15 03:26:24;;;;;;;2.30;2.00;;;;;;;;;;5028252;28;20237;-40
2022/05/15 03:28:51;;;;;;;2.30;1.90;;;;;;;;;;5025621;28;20343;-35
2022/05/15 03:31:19;;;;;;;2.23;1.77;;;;;;;;;;5031275;28;20209;-34
2022/05/15 03:33:46;;;;;;;1.80;1.70;;;;;;;;;;5021265;28;20218;-37
2022/05/15 03:36:15;;;;;;;1.73;1.63;;;;;;;;;;5033789;28;20226;-35
2022/05/15 03:38:43;;;;;;;1.73;1.63;;;;;;;;;;5034294;28;20199;-40
2022/05/15 03:41:11;;;;;;;1.33;1.20;;;;;;;;;;5031699;28;20195;-33
2022/05/15 03:43:38;;;;;;;4.23;2.07;;;;;;;;;;5029207;28;20212;-35
2022/05/15 03:46:06;;;;;;;4.00;1.90;;;;;;;;;;5026676;28;20222;-39
2022/05/15 03:48:34;;;;;;;2.30;1.83;;;;;;;;;;5016651;28;20228;-38
2022/05/15 03:51:03;;;;;;;1.70;1.60;;;;;;;;;;5026061;28;20214;-37
2022/05/15 03:53:32;;;;;;;1.80;1.70;;;;;;;;;;5032042;28;20297;-34
2022/05/15 03:55:59;;;;;;;3.63;1.90;;;;;;;;;;5023776;28;20233;-35
2022/05/15 03:58:27;;;;;;;1.83;1.73;;;;;;;;;;5029952;28;20238;-31
2022/05/15 04:00:55;;;;;;;2.10;1.90;;;;;;;;;;5033923;28;20206;-36
2022/05/15 04:03:22;;;;;;;3.50;1.90;;;;;;;;;;5028679;28;20207;-34
2022/05/15 04:05:49;;;;;;;2.80;1.90;;;;;;;;;;5032162;28;20284;-35
2022/05/15 04:08:16;;;;;;;1.60;1.50;;;;;;;;;;5033554;28;20225;-37
2022/05/15 04:10:46;;;;;;;2.37;2.13;;;;;;;;;;5027442;28;20234;-30
2022/05/15 04:13:13;;;;;;;1.63;1.53;;;;;;;;;;5032715;28;20289;-28
2022/05/15 04:15:41;;;;;;;1.83;1.73;;;;;;;;;;5031917;28;20226;-32
2022/05/15 04:18:09;;;;;;;6.70;2.00;;;;;;;;;;5024453;28;20209;-38
2022/05/15 04:20:36;;;;;;;1.90;1.80;;;;;;;;;;5025112;28;20214;-38
2022/05/15 04:23:04;;;;;;;2.90;1.90;;;;;;;;;;5032341;28;20198;-34
2022/05/15 04:25:31;;;;;;;2.30;2.00;;;;;;;;;;5031274;28;20446;-41
2022/05/15 04:27:59;;;;;;;2.93;1.73;;;;;;;;;;5024061;28;20238;-33
2022/05/15 04:30:27;;;;;;;2.53;1.73;;;;;;;;;;5034136;28;20194;-41
2022/05/15 04:32:55;;;;;;;1.73;1.57;;;;;;;;;;5029140;28;20202;-37
2022/05/15 04:35:23;;;;;;;3.33;1.83;;;;;;;;;;5024396;28;20206;-34
2022/05/15 04:37:51;;;;;;;2.07;1.67;;;;;;;;;;5033590;28;20202;-38
2022/05/15 04:40:19;;;;;;;2.50;1.80;;;;;;;;;;5033622;28;20260;-34
2022/05/15 04:42:46;;;;;;;2.47;1.70;;;;;;;;;;5028262;28;20225;-31
2022/05/15 04:45:15;;;;;;;1.80;1.70;;;;;;;;;;5028563;28;20206;-34
2022/05/15 04:47:44;;;;;;;2.30;1.83;;;;;;;;;;5021068;28;20210;-34
2022/05/15 04:50:11;;;;;;;2.90;1.90;;;;;;;;;;5021152;28;20641;-36
2022/05/15 04:52:38;;;;;;;2.00;1.80;;;;;;;;;;5032852;28;20210;-34
2022/05/15 04:55:07;;;;;;;2.70;1.80;;;;;;;;;;5027886;28;20204;-35
2022/05/15 04:57:35;;;;;;;2.60;1.90;;;;;;;;;;5030176;28;20229;-31
2022/05/15 05:00:02;;;;;;;3.23;1.90;;;;;;;;;;5032664;28;20206;-37
2022/05/15 05:02:31;;;;;;;3.13;1.97;;;;;;;;;;5014666;28;20207;-39
2022/05/15 05:04:59;;;;;;;2.20;2.00;;;;;;;;;;5026984;28;20207;-37
2022/05/15 05:07:26;;;;;;;2.47;1.80;;;;;;;;;;5017842;28;20261;-39
2022/05/15 05:09:53;;;;;;;2.00;1.90;;;;;;;;;;5031344;28;20215;-34
2022/05/15 05:12:21;;;;;;;2.23;1.90;;;;;;;;;;5032624;28;20213;-34
2022/05/15 05:14:48;;;;;;;2.00;1.80;;;;;;;;;;5030803;28;20298;-33
2022/05/15 05:17:16;;;;;;;3.50;2.20;;;;;;;;;;5021498;28;20223;-38
2022/05/15 05:19:44;;;;;;;2.67;1.80;;;;;;;;;;5020451;28;20219;-38
2022/05/15 05:22:11;;;;;;;2.70;1.90;;;;;;;;;;5030926;28;20198;-33
2022/05/15 05:24:38;;;;;;;2.73;2.00;;;;;;;;;;5029805;28;20210;-37
2022/05/15 05:27:06;;;;;;;1.90;1.80;;;;;;;;;;5023883;28;20223;-34
2022/05/15 05:29:33;;;;;;;2.83;1.63;;;;;;;;;;5013675;28;20230;-32
2022/05/15 05:32:00;;;;;;;2.43;1.90;;;;;;;;;;5029488;28;20218;-40
2022/05/15 05:34:27;;;;;;;6.20;2.93;;;;;;;;;;5018609;28;20214;-36
2022/05/15 05:36:56;;;;;;;2.67;1.93;;;;;;;;;;5031575;28;20265;-39
2022/05/15 05:39:23;;;;;;;2.10;1.90;;;;;;;;;;5024163;28;20202;-38
2022/05/15 05:41:50;;;;;;;3.60;1.80;;;;;;;;;;5021728;28;20210;-36
2022/05/15 05:44:17;;;;;;;2.93;2.23;;;;;;;;;;5029714;28;20238;-38
2022/05/15 05:46:45;;;;;;;1.97;1.77;;;;;;;;;;5033026;28;20219;-31
2022/05/15 05:49:12;;;;;;;2.80;1.90;;;;;;;;;;5026462;28;20265;-33
2022/05/15 05:51:39;;;;;;;2.10;1.80;;;;;;;;;;5031288;28;20293;-33
2022/05/15 05:54:08;;;;;;;3.67;1.77;;;;;;;;;;5032323;28;20262;-36
2022/05/15 05:56:35;;;;;;;8.03;2.97;;;;;;;;;;5030074;28;20275;-35
2022/05/15 05:59:02;;;;;;;2.10;1.90;;;;;;;;;;5029625;28;20199;-30
2022/05/15 06:01:30;;;;;;;2.93;2.13;;;;;;;;;;5028537;28;20203;-34
2022/05/15 06:06:41;;;;;;;1.97;1.77;;;;;;;;;;4992688;28;20222;-33
2022/05/15 06:09:09;;;;;;;4.07;1.83;;;;;;;;;;5032250;28;20304;-37
2022/05/15 06:11:37;;;;;;;2.00;1.90;;;;;;;;;;5025457;28;20289;-34
2022/05/15 06:14:04;;;;;;;3.30;2.00;;;;;;;;;;5027065;28;20213;-28
2022/05/15 06:16:32;;;;;;;2.47;1.90;;;;;;;;;;5029038;28;20321;-31
2022/05/15 06:18:59;;;;;;;2.37;1.93;;;;;;;;;;5009107;28;20290;-32
2022/05/15 06:21:27;;;;;;;2.23;2.00;;;;;;;;;;5005620;28;20207;-40
2022/05/15 06:23:54;;;;;;;2.17;1.93;;;;;;;;;;4993383;28;20211;-39
2022/05/15 06:26:22;;;;;;;4.07;2.77;;;;;;;;;;4995846;28;20310;-38
2022/05/15 06:28:50;;;;;;;2.37;2.10;;;;;;;;;;5022385;28;20233;-32
2022/05/15 06:31:17;;;;;;;2.97;2.23;;;;;;;;;;5016754;28;20196;-33
2022/05/15 06:33:44;;;;;;;2.23;2.10;;;;;;;;;;5001967;28;20208;-32
2022/05/15 06:36:12;;;;;;;3.83;2.13;;;;;;;;;;5010427;28;20228;-34
2022/05/15 06:38:40;;;;;;;4.43;2.20;;;;;;;;;;5031414;28;20222;-34
2022/05/15 06:41:08;;;;;;;2.43;2.10;;;;;;;;;;5035151;28;20208;-31
2022/05/15 06:43:38;;;;;;;2.47;2.27;;;;;;;;;;5002401;28;20216;-38
2022/05/15 06:46:05;;;;;;;3.00;2.13;;;;;;;;;;5016779;28;20228;-34
2022/05/15 06:48:35;;;;;;;3.13;2.00;;;;;;;;;;5009430;28;20224;-37
2022/05/15 06:51:03;;;;;;;4.43;2.50;;;;;;;;;;5015260;28;20210;-40
2022/05/15 06:53:30;;;;;;;4.40;2.33;;;;;;;;;;5031958;28;20205;-33
2022/05/15 06:58:43;;;;;;;3.40;1.93;;;;;;;;;;5020107;28;20249;-37
2022/05/15 07:01:12;;;;;;;2.97;2.00;;;;;;;;;;5031471;28;20214;-33
2022/05/15 07:03:39;;;;;;;3.40;2.40;;;;;;;;;;5006127;28;20207;-34
2022/05/15 07:06:07;;;;;;;5.00;2.17;;;;;;;;;;5019184;28;20221;-30
2022/05/15 07:08:34;;;;;;;4.70;2.20;;;;;;;;;;5005096;28;20223;-36
2022/05/15 07:11:01;;;;;;;3.43;1.87;;;;;;;;;;5000572;28;20203;-39
2022/05/15 07:13:29;;;;;;;2.87;2.00;;;;;;;;;;5008641;28;20232;-37
2022/05/15 07:15:57;;;;;;;2.60;2.08;;;;;;;;;;5031817;28;20276;-39
2022/05/15 07:18:25;;;;;;;3.67;2.73;;;;;;;;;;5024509;28;20210;-36
2022/05/15 07:20:52;;;;;;;2.42;1.80;;;;;;;;;;5034242;28;20333;-40
2022/05/15 07:23:20;;;;;;;2.97;1.92;;;;;;;;;;5029094;28;20209;-40
2022/05/15 07:25:47;;;;;;;3.10;2.30;;;;;;;;;;5024960;28;20227;-38
2022/05/15 07:28:14;;;;;;;1.73;1.63;;;;;;;;;;5035801;28;20206;-37
2022/05/15 07:30:41;;;;;;;2.83;1.98;;;;;;;;;;5034649;28;20226;-31
2022/05/15 07:33:10;;;;;;;2.30;2.10;;;;;;;;;;5028698;28;20203;-38
2022/05/15 07:35:37;;;;;;;2.92;2.30;;;;;;;;;;5034650;28;20257;-38
2022/05/15 07:38:07;;;;;;;3.65;1.80;;;;;;;;;;5035098;28;20199;-35
2022/05/15 07:40:34;;;;;;;3.40;1.65;;;;;;;;;;5029985;28;20212;-34
2022/05/15 07:43:05;;;;;;;3.45;1.70;;;;;;;;;;5029879;28;20241;-34
2022/05/15 07:45:34;;;;;;;2.92;1.45;;;;;;;;;;5031623;28;20238;-38
2022/05/15 07:48:01;;;;;;;2.40;1.63;;;;;;;;;;5027023;28;20203;-37
2022/05/15 07:50:38;;;;;;;2.95;1.88;;;;;;;;;;5032807;28;20317;-31
2022/05/15 07:53:06;;;;;;;3.97;1.50;;;;;;;;;;5029112;28;20255;-34
2022/05/15 07:55:33;;;;;;;5.70;1.65;;;;;;;;;;5026940;28;20235;-36
2022/05/15 07:58:00;;;;;;;3.22;1.52;;;;;;;;;;5028973;28;20202;-35
2022/05/15 08:00:28;;;;;;;2.92;1.40;;;;;;;;;;5033345;28;20199;-35
2022/05/15 08:03:02;;;;;;;4.72;1.77;;;;;;;;;;5029590;28;20290;-38
2022/05/15 08:08:18;;;;;;;3.65;1.55;;;;;;;;;;5017867;28;20208;-33
2022/05/15 08:10:46;;;;;;;2.80;1.38;;;;;;;;;;5026344;28;20229;-34
2022/05/15 08:13:14;;;;;;;1.88;1.10;;;;;;;;;;5026012;28;20210;-36
2022/05/15 08:15:42;;;;;;;3.72;1.50;;;;;;;;;;5084024;22;20261;-92
2022/05/15 08:23:44;;;;;;;2.03;1.25;;;;;;;;;;5068874;28;20248;-92
2022/05/15 08:26:11;;;;;;;5.10;1.55;;;;;;;;;;5070056;28;20665;-92
2022/05/15 08:28:38;;;;;;;2.13;1.40;;;;;;;;;;5065631;28;20206;-92
2022/05/15 08:31:06;;;;;;;2.83;1.45;;;;;;;;;;5071753;28;20205;-92
2022/05/15 08:33:34;;;;;;;1.92;1.38;;;;;;;;;;5065771;28;20233;-92
2022/05/15 08:36:02;;;;;;;3.83;1.33;;;;;;;;;;5066848;28;20209;-92
2022/05/15 08:38:29;;;;;;;3.42;1.60;;;;;;;;;;5071575;28;20557;-92
2022/05/15 08:41:00;;;;;;;2.00;1.30;;;;;;;;;;5064702;28;20716;-92
2022/05/15 08:43:31;;;;;;;3.80;1.50;;;;;;;;;;5066912;28;20260;-92
2022/05/15 08:46:03;;;;;;;1.88;1.35;;;;;;;;;;5071379;28;20205;-93
2022/05/15 08:48:33;;;;;;;1.35;1.25;;;;;;;;;;5057133;28;20213;-92
2022/05/15 08:51:04;;;;;;;3.63;1.20;;;;;;;;;;5068347;28;20223;-92
2022/05/15 08:53:34;;;;;;;2.65;1.30;;;;;;;;;;5067646;28;20230;-93
2022/05/15 08:56:06;;;;;;;1.55;1.23;;;;;;;;;;5069782;28;20204;-93
2022/05/15 08:58:36;;;;;;;2.00;1.15;;;;;;;;;;5072480;28;20259;-93
2022/05/15 09:01:06;;;;;;;2.53;1.10;;;;;;;;;;5072371;28;20232;-93
2022/05/15 09:03:35;;;;;;;2.28;1.15;;;;;;;;;;5066993;28;20229;-93
2022/05/15 09:06:05;;;;;;;3.72;1.30;;;;;;;;;;5072295;28;20235;-93
2022/05/15 09:08:45;;;;;;;2.63;0.90;;;;;;;;;;5072223;28;20598;-93
2022/05/15 09:11:14;;;;;;;3.05;1.20;;;;;;;;;;5072870;28;20220;-94
2022/05/15 09:13:42;;;;;;;3.60;1.27;;;;;;;;;;5072584;28;20317;-94
2022/05/15 09:16:15;;;;;;;2.83;1.02;;;;;;;;;;5073260;28;20271;-94
2022/05/15 09:18:42;;;;;;;4.45;1.30;;;;;;;;;;5073321;28;20292;-94
2022/05/15 09:21:12;;;;;;;2.78;1.58;;;;;;;;;;5072776;28;20207;-94
2022/05/15 09:23:40;;;;;;;5.47;1.38;;;;;;;;;;5073774;28;20227;-94
2022/05/15 09:26:13;;;;;;;2.25;1.25;;;;;;;;;;5074171;28;20273;-94
2022/05/15 09:28:43;;;;;;;1.48;1.30;;;;;;;;;;5073390;28;20214;-94
2022/05/15 09:31:20;;;;;;;1.02;0.98;;;;;;;;;;5073023;28;20689;-94
2022/05/15 09:33:50;;;;;;;2.63;1.10;;;;;;;;;;5072294;28;20231;-93
2022/05/15 09:36:20;;;;;;;2.38;1.30;;;;;;;;;;5072872;28;20197;-93
2022/05/15 09:38:48;;;;;;;1.70;1.20;;;;;;;;;;5073985;28;20346;-94
2022/05/15 09:44:04;;;;;;;3.47;1.45;;;;;;;;;;5075898;28;20228;-93
2022/05/15 09:46:31;;;;;;;1.30;1.20;;;;;;;;;;5076891;28;20232;-92
2022/05/15 09:49:01;;;;;;;1.13;1.10;;;;;;;;;;5071832;28;20272;-92
2022/05/15 09:51:34;;;;;;;1.65;1.15;;;;;;;;;;5074326;28;20195;-93
2022/05/15 09:54:01;;;;;;;2.13;1.40;;;;;;;;;;5074362;28;20228;-93
2022/05/15 09:56:31;;;;;;;2.80;1.20;;;;;;;;;;5074380;28;20239;-93
2022/05/15 09:58:59;;;;;;;1.83;1.00;;;;;;;;;;5074699;28;20658;-92
2022/05/15 10:01:28;;;;;;;1.65;1.08;;;;;;;;;;5073845;28;20220;-93
2022/05/15 10:03:58;;;;;;;3.38;1.50;;;;;;;;;;5070180;28;20231;-92
2022/05/15 10:06:26;;;;;;;1.98;1.30;;;;;;;;;;5074315;28;20220;-92
2022/05/15 10:09:09;;;;;;;3.30;1.20;;;;;;;;;;5078230;28;20232;-93
2022/05/15 10:11:39;;;;;;;2.80;1.42;;;;;;;;;;5073985;28;20254;-92
2022/05/15 10:14:07;;;;;;;1.10;1.00;;;;;;;;;;5058059;28;20225;-94
2022/05/15 10:16:39;;;;;;;3.58;1.35;;;;;;;;;;5059389;28;20206;-93
2022/05/15 10:19:17;;;;;;;1.25;1.15;;;;;;;;;;5058405;28;20555;-93
2022/05/15 10:21:47;;;;;;;2.03;1.20;;;;;;;;;;5059282;28;20209;-92
2022/05/15 10:24:16;;;;;;;1.88;1.30;;;;;;;;;;5059363;28;20230;-93
2022/05/15 10:26:50;;;;;;;2.45;1.35;;;;;;;;;;5059278;28;20292;-93
2022/05/15 10:29:21;;;;;;;4.05;1.30;;;;;;;;;;5061379;28;20558;-93
2022/05/15 10:31:51;;;;;;;1.73;1.05;;;;;;;;;;5070466;28;20228;-93
2022/05/15 10:37:11;;;;;;;1.40;1.08;;;;;;;;;;5060292;28;20210;-93
2022/05/15 10:39:45;;;;;;;3.33;1.73;;;;;;;;;;5064935;28;20232;-94
2022/05/15 10:42:20;;;;;;;1.33;1.10;;;;;;;;;;5069644;28;20678;-94
2022/05/15 10:44:52;;;;;;;1.30;1.20;;;;;;;;;;5079900;28;20212;-93
2022/05/15 10:47:20;;;;;;;2.10;1.30;;;;;;;;;;5080139;28;20219;-94
2022/05/15 10:50:02;;;;;;;5.10;1.43;;;;;;;;;;5082614;28;20224;-94
2022/05/15 10:52:42;;;;;;;3.57;1.17;;;;;;;;;;5083081;28;20288;-94
2022/05/15 10:58:03;;;;;;;3.30;1.50;;;;;;;;;;5085406;28;20188;-94
2022/05/15 11:00:35;;;;;;;2.37;1.23;;;;;;;;;;5082335;28;20203;-94
2022/05/15 11:03:14;;;;;;;3.30;1.40;;;;;;;;;;5078182;28;20217;-94
2022/05/15 11:05:47;;;;;;;3.10;1.40;;;;;;;;;;5086367;28;20192;-94
2022/05/15 11:08:22;;;;;;;2.60;1.07;;;;;;;;;;5082781;28;20330;-93
2022/05/15 11:10:51;;;;;;;2.70;1.80;;;;;;;;;;5081793;28;20220;-93
2022/05/15 11:13:22;;;;;;;8.73;8.03;;;;;;;;;;5078003;28;20248;-92
2022/05/15 11:15:57;;;;;;;3.00;2.80;;;;;;;;;;5076306;28;20236;-92
2022/05/15 11:18:32;;;;;;;1.65;1.17;;;;;;;;;;5077831;28;20209;-93
2022/05/15 11:21:14;;;;;;;1.40;1.30;;;;;;;;;;5069737;28;20193;-93
2022/05/15 11:23:45;;;;;;;1.40;1.30;;;;;;;;;;5077480;28;20217;-92
2022/05/15 11:26:16;;;;;;;3.38;1.10;;;;;;;;;;5078197;28;20264;-94
2022/05/15 11:28:47;;;;;;;1.73;1.33;;;;;;;;;;5078187;28;20216;-92
2022/05/15 11:31:17;;;;;;;2.23;1.40;;;;;;;;;;5079321;28;20213;-93
2022/05/15 11:33:53;;;;;;;2.35;1.35;;;;;;;;;;5078611;28;20232;-93
2022/05/15 11:36:37;;;;;;;5.40;1.57;;;;;;;;;;5078840;28;20201;-92
2022/05/15 11:39:06;;;;;;;3.03;1.27;;;;;;;;;;5075073;28;20205;-93
2022/05/15 11:41:40;;;;;;;1.87;1.40;;;;;;;;;;5071199;28;20205;-93
2022/05/15 11:44:12;;;;;;;1.57;1.40;;;;;;;;;;5073236;28;20281;-92
2022/05/15 11:46:58;;;;;;;2.70;1.50;;;;;;;;;;5073714;28;20223;-93
2022/05/15 11:49:31;;;;;;;4.22;1.20;;;;;;;;;;5069800;28;20236;-92
2022/05/15 11:52:14;;;;;;;2.75;1.40;;;;;;;;;;5074057;28;20217;-93
2022/05/15 11:54:43;;;;;;;2.25;1.13;;;;;;;;;;5073146;28;20204;-92
2022/05/15 11:57:11;;;;;;;1.52;1.10;;;;;;;;;;5067973;28;20204;-93
2022/05/15 11:59:41;;;;;;;3.53;1.23;;;;;;;;;;5076665;28;20289;-93
2022/05/15 12:02:34;;;;;;;3.17;1.60;;;;;;;;;;5076620;28;20209;-93
2022/05/15 12:05:02;;;;;;;2.80;1.33;;;;;;;;;;5075958;28;20207;-92
2022/05/15 12:07:37;;;;;;;1.20;1.10;;;;;;;;;;5075819;28;20267;-94
2022/05/15 12:10:04;;;;;;;2.78;1.63;;;;;;;;;;5076578;28;20270;-94
2022/05/15 12:12:57;;;;;;;5.93;4.53;;;;;;;;;;5062572;28;20222;-94
2022/05/15 12:15:37;;;;;;;7.93;5.72;;;;;;;;;;5072538;28;20655;-94
2022/05/15 12:18:12;;;;;;;8.70;6.07;;;;;;;;;;5069644;28;20197;-94
2022/05/15 12:20:47;;;;;;;1.38;1.27;;;;;;;;;;5078331;28;20204;-94
2022/05/15 12:23:17;;;;;;;3.22;2.85;;;;;;;;;;5075992;28;20307;-94
2022/05/15 12:25:59;;;;;;;9.07;5.72;;;;;;;;;;5076889;28;20247;-94
2022/05/15 12:31:49;;;;;;;2.95;1.63;;;;;;;;;;5071218;28;20302;-93
2022/05/15 12:34:26;;;;;;;6.78;5.03;;;;;;;;;;5076330;28;20232;-92
2022/05/15 12:36:54;;;;;;;2.97;1.50;;;;;;;;;;5075447;28;20197;-93
2022/05/15 12:39:24;;;;;;;2.08;1.92;;;;;;;;;;5074384;28;20645;-92
2022/05/15 12:41:52;;;;;;;2.20;1.80;;;;;;;;;;5074277;28;21192;-92
2022/05/15 12:44:29;;;;;;;6.10;4.38;;;;;;;;;;5076001;28;20315;-94
2022/05/15 12:46:59;;;;;;;4.60;3.03;;;;;;;;;;5056179;28;20205;-93
2022/05/15 12:49:31;;;;;;;1.80;1.58;;;;;;;;;;5075738;28;20202;-93
2022/05/15 12:52:17;;;;;;;4.90;3.15;;;;;;;;;;5067132;28;20700;-93
2022/05/15 12:54:45;;;;;;;2.33;2.10;;;;;;;;;;5075981;28;20205;-93
2022/05/15 12:57:15;;;;;;;2.70;1.92;;;;;;;;;;5072405;28;20205;-93
2022/05/15 12:59:44;;;;;;;1.85;1.27;;;;;;;;;;5076207;28;20754;-94
2022/05/15 13:02:17;;;;;;;1.17;1.10;;;;;;;;;;5074959;28;20202;-93
2022/05/15 13:04:48;;;;;;;2.88;1.40;;;;;;;;;;5073728;28;20201;-93
2022/05/15 13:07:16;;;;;;;1.40;1.30;;;;;;;;;;5072293;28;20208;-93
2022/05/15 13:09:43;;;;;;;1.80;1.23;;;;;;;;;;5073106;28;20210;-93
2022/05/15 13:12:15;;;;;;;1.50;1.40;;;;;;;;;;5071628;28;20254;-93
2022/05/15 13:14:46;;;;;;;2.70;1.17;;;;;;;;;;5071704;28;20215;-93
2022/05/15 13:17:14;;;;;;;3.85;1.30;;;;;;;;;;5071379;28;20301;-93
2022/05/15 13:19:46;;;;;;;2.42;1.40;;;;;;;;;;5065034;28;20233;-92
2022/05/15 13:22:15;;;;;;;1.83;1.73;;;;;;;;;;5065220;28;20292;-93
2022/05/15 13:24:43;;;;;;;1.95;1.30;;;;;;;;;;5069810;28;20297;-93
2022/05/15 13:27:11;;;;;;;3.40;1.20;;;;;;;;;;5079735;28;20236;-93
2022/05/15 13:29:41;;;;;;;1.23;1.10;;;;;;;;;;5073423;28;20212;-93
2022/05/15 13:32:17;;;;;;;2.03;1.30;;;;;;;;;;5073462;28;20222;-93
2022/05/15 13:34:51;;;;;;;2.83;1.20;;;;;;;;;;5073418;28;20210;-93
2022/05/15 13:37:27;;;;;;;1.58;1.20;;;;;;;;;;5074224;28;20217;-93
2022/05/15 13:45:35;;;;;;;1.40;1.30;;;;;;;;;;5052960;28;20190;-93
2022/05/15 13:48:03;;;;;;;2.45;1.40;;;;;;;;;;5066614;28;20611;-93
2022/05/15 13:50:44;;;;;;;3.17;1.15;;;;;;;;;;5076708;28;20211;-93
2022/05/15 13:53:22;;;;;;;1.67;1.58;;;;;;;;;;5071150;28;20680;-92
2022/05/15 13:55:55;;;;;;;7.13;1.45;;;;;;;;;;5075794;28;20274;-93
2022/05/15 13:58:22;;;;;;;1.38;1.20;;;;;;;;;;5075082;28;20560;-93
2022/05/15 14:01:03;;;;;;;1.60;1.20;;;;;;;;;;5075507;28;20222;-93
2022/05/15 14:03:31;;;;;;;1.23;1.13;;;;;;;;;;5074046;28;20287;-93
2022/05/15 14:09:03;;;;;;;1.63;1.15;;;;;;;;;;5171219;27;20541;-31
2022/05/15 14:11:47;;;;;;;2.53;1.10;;;;;;;;;;5145407;27;20682;-35
2022/05/15 14:17:03;;;;;;;1.58;1.10;;;;;;;;;;5177483;22;20296;-33
2022/05/15 14:19:30;;;;;;;2.72;1.33;;;;;;;;;;5022079;28;20200;-39
2022/05/15 14:21:59;;;;;;;1.15;1.05;;;;;;;;;;5039905;28;20207;-41
2022/05/15 14:24:27;;;;;;;3.13;1.30;;;;;;;;;;5029012;28;20218;-36
2022/05/15 14:26:54;;;;;;;1.20;1.20;;;;;;;;;;5023374;28;20485;-33
2022/05/15 14:29:22;;;;;;;1.90;1.30;;;;;;;;;;5035689;28;20206;-37
2022/05/15 14:31:49;;;;;;;3.33;1.17;;;;;;;;;;5033525;28;20214;-36
2022/05/15 14:34:16;;;;;;;1.20;1.10;;;;;;;;;;5017644;28;20218;-36
2022/05/15 14:36:47;;;;;;;3.55;1.33;;;;;;;;;;5026168;28;20259;-38
2022/05/15 14:39:14;;;;;;;1.13;1.02;;;;;;;;;;5032686;28;20246;-37
2022/05/15 14:41:43;;;;;;;2.58;1.35;;;;;;;;;;5023811;28;20216;-41
2022/05/15 14:44:10;;;;;;;1.30;0.98;;;;;;;;;;5027129;28;20211;-42
2022/05/15 14:46:37;;;;;;;2.90;1.25;;;;;;;;;;5037352;28;20221;-41
2022/05/15 14:49:05;;;;;;;1.60;1.20;;;;;;;;;;5015184;28;20199;-39
2022/05/15 14:51:35;;;;;;;3.95;1.30;;;;;;;;;;5026997;28;20195;-39
2022/05/15 14:54:04;;;;;;;1.75;0.93;;;;;;;;;;5032222;28;20273;-37
2022/05/15 14:56:33;;;;;;;2.72;1.30;;;;;;;;;;5019808;28;20234;-40
2022/05/15 14:59:06;;;;;;;1.75;1.23;;;;;;;;;;5025073;28;20201;-42
2022/05/15 15:01:34;;;;;;;1.52;1.30;;;;;;;;;;5035974;28;20195;-35
2022/05/15 15:04:01;;;;;;;4.15;1.10;;;;;;;;;;5022195;28;20317;-44
2022/05/15 15:06:28;;;;;;;1.58;1.02;;;;;;;;;;5042546;28;20224;-41
2022/05/15 15:08:55;;;;;;;5.25;1.48;;;;;;;;;;5031257;28;20228;-38
2022/05/15 15:11:24;;;;;;;2.53;1.00;;;;;;;;;;5023470;28;20219;-37
2022/05/15 15:13:53;;;;;;;1.85;1.30;;;;;;;;;;5022156;28;20212;-37
2022/05/15 15:16:22;;;;;;;1.48;1.20;;;;;;;;;;5038049;28;20306;-41
2022/05/15 15:18:50;;;;;;;2.55;1.10;;;;;;;;;;5017827;28;20203;-44
2022/05/15 15:21:18;;;;;;;3.03;1.10;;;;;;;;;;5010702;28;20204;-36
2022/05/15 15:23:45;;;;;;;1.00;1.00;;;;;;;;;;5024298;28;20211;-40
2022/05/15 15:26:13;;;;;;;1.20;1.10;;;;;;;;;;5005813;28;20223;-41
2022/05/15 15:28:41;;;;;;;1.65;1.42;;;;;;;;;;5017568;28;20285;-39
2022/05/15 15:31:08;;;;;;;2.20;1.17;;;;;;;;;;5025949;28;20203;-34
2022/05/15 15:33:38;;;;;;;1.90;1.30;;;;;;;;;;5011594;28;20670;-42
2022/05/15 15:36:05;;;;;;;1.98;1.50;;;;;;;;;;5022222;28;20362;-39
2022/05/15 15:38:32;;;;;;;1.50;1.10;;;;;;;;;;5020152;28;20202;-44